Aeroporto :
LOGIN :

Iscrizione | Disclaimer

   EN    FR    IT 

 










Sommario :    VFR   VFR Marginale   IFR   IFR Intensivo   IFR Molto Intensivo
Visibilità : 
Base nubi : 
>= 8 km
>= 3000ft
5 / 8 km
1000 / 3000 ft
1500m / 5 km
500 / 1000 ft
800 / 1500m
200 / 500 ft
< 800m
< 200 ft
Simboli :   Temporali  Nebbia  Neve Forte  Precipitazioni Forti  Vento > 20 kt
SIGMETs :   Varie  Temporali  Ghiacco  Turbolenza  Onda orograficha  Ceneri Vulcaniche






- Altitudine del aeroporto : 1178 ft
- Codice IATA : EVG


ESND - Sveg

ULTIMO METAR :
  • 290920Z AUTO 24005KT 190V270 9999 OVC042/// M01/M08 Q1025

METARs OBSOLETI :
  • 290850Z AUTO 23006KT 200V280 9999 FEW031/// SCT048/// BKN057/// M02/M08 Q1025
  • 290820Z AUTO 25008KT 9999 FEW019/// SCT030/// BKN044/// M03/M09 Q1026
  • 290750Z AUTO 25008KT 220V280 9999 SCT053/// M03/M09 Q1026
  • 290720Z AUTO 25008KT 9999 FEW025/// SCT055/// M04/M09 Q1026
  • 290650Z AUTO 25009KT 9999 FEW022/// OVC049/// M04/M09 Q1026

TAF N/A



MetMap, La meteo Aeronautica in un colpo d'occhio ! - Copyright ORBIFLY Dicembre 2007 - Disclaimer

ORBIFLY MET'MAP TEAM :

Programmazione e sviluppo : Alexandra Zaïnal
Concezione : Baudouin d'Aumeries
Aiuto per la programmazione : Marc-Olivier Méhu
Supporto tecnico e logistico : Manuel Goepfert
Aiuto per la traduzione : Arnaldo La Scala

Contatto : metmap@orbifly.com




FONTI E CREDITI :

   NOAA